createdAt,value
2018-09-11T00:00:55.659Z,17.38
2018-09-11T00:01:55.663Z,17.34
2018-09-11T00:02:55.665Z,17.37
2018-09-11T00:03:55.773Z,17.32
2018-09-11T00:04:56.163Z,17.34
2018-09-11T00:05:55.699Z,17.39
2018-09-11T00:06:55.727Z,17.39
2018-09-11T00:07:55.746Z,17.44
2018-09-11T00:08:56.525Z,17.39
2018-09-11T00:09:55.908Z,17.37
2018-09-11T00:10:55.693Z,17.32
2018-09-11T00:11:55.728Z,17.38
2018-09-11T00:12:55.670Z,17.31
2018-09-11T00:13:55.714Z,17.35
2018-09-11T00:14:55.674Z,17.2
2018-09-11T00:15:55.722Z,17.22
2018-09-11T00:16:55.688Z,17.28
2018-09-11T00:17:55.690Z,17.23
2018-09-11T00:18:55.716Z,17.3
2018-09-11T00:19:55.716Z,17.27
2018-09-11T00:20:55.718Z,17.27
2018-09-11T00:21:55.729Z,17.23
2018-09-11T00:22:55.706Z,17.2
2018-09-11T00:23:55.738Z,17.2
2018-09-11T00:24:55.739Z,17.2
2018-09-11T00:25:55.731Z,17.23
2018-09-11T00:26:55.738Z,17.22
2018-09-11T00:27:55.767Z,17.17
2018-09-11T00:28:55.718Z,17.2
2018-09-11T00:29:55.744Z,17.16
2018-09-11T00:30:55.750Z,17.09
2018-09-11T00:31:55.720Z,17.09
2018-09-11T00:32:55.736Z,17.07
2018-09-11T00:33:55.741Z,17.2
2018-09-11T00:34:55.743Z,17.12
2018-09-11T00:35:55.717Z,17.16
2018-09-11T00:36:55.691Z,17.16
2018-09-11T00:37:55.729Z,17.19
2018-09-11T00:38:55.744Z,17.24
2018-09-11T00:39:55.754Z,17.3
2018-09-11T00:40:55.758Z,17.19
2018-09-11T00:41:55.789Z,17.16
2018-09-11T00:42:55.759Z,17.28
2018-09-11T00:43:55.708Z,17.1
2018-09-11T00:44:55.755Z,17.27
2018-09-11T00:45:55.710Z,17.28
2018-09-11T00:46:55.763Z,17.27
2018-09-11T00:47:55.773Z,17.22
2018-09-11T00:48:55.778Z,17.12
2018-09-11T00:49:55.748Z,17.22
2018-09-11T00:50:55.748Z,17.28
2018-09-11T00:52:00.049Z,17.23
2018-09-11T00:52:55.759Z,17.19
2018-09-11T00:53:55.760Z,17.28
2018-09-11T00:54:55.776Z,17.2
2018-09-11T00:55:55.742Z,17.31
2018-09-11T00:56:55.760Z,17.27
2018-09-11T00:57:55.727Z,17.13
2018-09-11T00:58:55.996Z,17.1
2018-09-11T00:59:55.980Z,17.09
2018-09-11T01:00:55.753Z,17.01
2018-09-11T01:01:55.795Z,17.09
2018-09-11T01:02:55.765Z,17.09
2018-09-11T01:03:55.797Z,17.12
2018-09-11T01:04:55.775Z,16.95
2018-09-11T01:05:55.777Z,16.99
2018-09-11T01:06:55.793Z,17.14
2018-09-11T01:07:55.767Z,17.09
2018-09-11T01:08:56.047Z,17.09
2018-09-11T01:09:56.043Z,17.05
2018-09-11T01:10:55.855Z,16.95
2018-09-11T01:11:55.806Z,16.86
2018-09-11T01:12:55.786Z,16.94
2018-09-11T01:13:55.798Z,16.92
2018-09-11T01:18:24.282Z,16.92
2018-09-11T01:19:24.291Z,17.09
2018-09-11T01:20:24.486Z,17.1
2018-09-11T01:21:24.297Z,16.95
2018-09-11T01:22:24.302Z,17.05
2018-09-11T01:23:24.327Z,17.01
2018-09-11T01:24:24.359Z,16.94
2018-09-11T01:25:24.272Z,16.98
2018-09-11T01:26:24.348Z,16.97
2018-09-11T01:27:24.317Z,16.94
2018-09-11T01:28:24.296Z,16.92
2018-09-11T01:29:24.285Z,16.91
2018-09-11T01:30:24.297Z,16.98
2018-09-11T01:31:24.289Z,16.95
2018-09-11T01:32:24.279Z,16.91
2018-09-11T01:33:24.324Z,16.82
2018-09-11T01:34:24.302Z,16.86
2018-09-11T01:35:24.295Z,16.8
2018-09-11T01:36:24.278Z,16.82
2018-09-11T01:37:24.314Z,16.76
2018-09-11T01:38:24.291Z,16.74
2018-09-11T01:39:24.320Z,16.77
2018-09-11T01:40:24.344Z,16.73
2018-09-11T01:41:24.303Z,16.83
2018-09-11T01:42:24.336Z,16.77
2018-09-11T01:43:24.322Z,16.77
2018-09-11T01:44:24.352Z,16.73
2018-09-11T01:45:24.327Z,16.76
2018-09-11T01:46:24.340Z,16.72
2018-09-11T01:47:24.320Z,16.68
2018-09-11T01:48:24.314Z,16.69
2018-09-11T01:49:24.330Z,16.73
2018-09-11T01:50:24.317Z,16.68
2018-09-11T01:51:24.310Z,16.76
2018-09-11T01:52:24.307Z,16.66
2018-09-11T01:53:24.461Z,16.62
2018-09-11T01:54:24.384Z,16.5
2018-09-11T01:55:24.361Z,16.57
2018-09-11T01:56:24.366Z,16.55
2018-09-11T01:57:24.315Z,16.57
2018-09-11T01:58:24.371Z,16.57
2018-09-11T01:59:24.345Z,16.51
2018-09-11T02:00:24.387Z,16.49
2018-09-11T02:01:24.398Z,16.51
2018-09-11T02:02:24.400Z,16.46
2018-09-11T02:03:24.353Z,16.49
2018-09-11T02:04:24.400Z,16.41
2018-09-11T02:05:24.392Z,16.25
2018-09-11T02:06:24.378Z,16.13
2018-09-11T02:07:24.406Z,16.09
2018-09-11T02:08:24.378Z,16.13
2018-09-11T02:09:24.374Z,16.12
2018-09-11T02:10:24.390Z,16
2018-09-11T02:11:24.350Z,16.1
2018-09-11T02:12:24.363Z,16.02
2018-09-11T02:13:24.333Z,16
2018-09-11T02:14:24.381Z,15.96
2018-09-11T02:15:24.415Z,16.12
2018-09-11T02:16:24.424Z,16.21
2018-09-11T02:17:24.397Z,16.13
2018-09-11T02:18:24.397Z,16.13
2018-09-11T02:19:24.381Z,16.17
2018-09-11T02:20:24.383Z,16.21
2018-09-11T02:21:24.457Z,16.22
2018-09-11T02:22:24.405Z,16.32
2018-09-11T02:23:24.373Z,16.34
2018-09-11T02:24:24.411Z,16.28
2018-09-11T02:25:24.493Z,16.29
2018-09-11T02:26:24.356Z,16.31
2018-09-11T02:27:24.369Z,16.28
2018-09-11T02:28:24.402Z,16.31
2018-09-11T02:29:24.372Z,16.21
2018-09-11T02:30:24.395Z,16.22
2018-09-11T02:31:24.390Z,16.28
2018-09-11T02:32:24.422Z,16.21
2018-09-11T02:33:24.402Z,16.12
2018-09-11T02:34:24.418Z,16.06
2018-09-11T02:39:41.862Z,15.98
2018-09-11T02:39:54.136Z,15.65
2018-09-11T02:40:54.122Z,15.7
2018-09-11T02:41:54.337Z,15.85
2018-09-11T02:42:54.088Z,15.85
2018-09-11T02:43:54.191Z,15.85
2018-09-11T02:44:54.142Z,15.81
2018-09-11T02:45:54.143Z,15.83
2018-09-11T02:46:54.255Z,15.9
2018-09-11T02:47:54.093Z,15.92
2018-09-11T02:48:54.151Z,15.87
2018-09-11T02:49:54.135Z,15.87
2018-09-11T02:50:54.151Z,15.92
2018-09-11T02:51:54.150Z,15.9
2018-09-11T02:52:54.327Z,15.85
2018-09-11T02:53:54.152Z,15.78
2018-09-11T02:54:54.094Z,15.59
2018-09-11T02:59:23.596Z,15.37
2018-09-11T03:00:23.667Z,15.41
2018-09-11T03:01:23.630Z,15.51
2018-09-11T03:02:23.635Z,15.47
2018-09-11T03:03:23.622Z,15.57
2018-09-11T03:04:23.622Z,15.55
2018-09-11T03:05:23.635Z,15.57
2018-09-11T03:06:23.626Z,15.59
2018-09-11T03:07:23.637Z,15.57
2018-09-11T03:08:23.611Z,15.54
2018-09-11T03:09:23.620Z,15.54
2018-09-11T03:10:23.646Z,15.59
2018-09-11T03:11:23.655Z,15.59
2018-09-11T03:12:23.668Z,15.54
2018-09-11T03:13:23.644Z,15.51
2018-09-11T03:14:23.622Z,15.52
2018-09-11T03:15:23.630Z,15.43
2018-09-11T03:16:23.626Z,15.51
2018-09-11T03:17:23.634Z,15.51
2018-09-11T03:18:23.617Z,15.5
2018-09-11T03:19:23.622Z,15.52
2018-09-11T03:20:23.653Z,15.51
2018-09-11T03:21:23.639Z,15.48
2018-09-11T03:22:23.645Z,15.44
2018-09-11T03:23:23.643Z,15.35
2018-09-11T03:24:23.618Z,15.25
2018-09-11T03:25:23.683Z,15.33
2018-09-11T03:26:23.629Z,15.47
2018-09-11T03:27:23.670Z,15.43
2018-09-11T03:28:23.641Z,15.32
2018-09-11T03:29:23.639Z,15.3
2018-09-11T03:30:23.707Z,15.35
2018-09-11T03:31:23.636Z,15.32
2018-09-11T03:32:23.660Z,15.35
2018-09-11T03:33:23.641Z,15.25
2018-09-11T03:34:23.665Z,15.3
2018-09-11T03:35:23.656Z,15.3
2018-09-11T03:36:23.733Z,15.25
2018-09-11T03:37:23.661Z,15.3
2018-09-11T03:38:23.663Z,15.32
2018-09-11T03:39:23.822Z,15.29
2018-09-11T03:40:23.705Z,15.32
2018-09-11T03:41:23.662Z,15.29
2018-09-11T03:42:23.685Z,15.26
2018-09-11T03:43:23.722Z,15.33
2018-09-11T03:44:23.868Z,15.3
2018-09-11T03:45:23.738Z,15.25
2018-09-11T03:46:23.705Z,15.32
2018-09-11T03:47:23.679Z,15.25
2018-09-11T03:48:23.691Z,15.18
2018-09-11T03:49:23.667Z,15.15
2018-09-11T03:50:23.701Z,15.15
2018-09-11T03:51:23.727Z,15.02
2018-09-11T03:52:23.741Z,15.08
2018-09-11T03:53:23.687Z,15.02
2018-09-11T03:54:23.679Z,15
2018-09-11T03:58:53.438Z,15.11
2018-09-11T03:59:53.046Z,14.99
2018-09-11T04:00:53.090Z,15
2018-09-11T04:01:53.044Z,15.07
2018-09-11T04:02:53.047Z,15.05
2018-09-11T04:03:53.072Z,15.02
2018-09-11T04:04:53.086Z,15.04
2018-09-11T04:05:53.138Z,15.02
2018-09-11T04:06:53.126Z,15.1
2018-09-11T04:07:53.030Z,15.11
2018-09-11T04:08:53.078Z,14.99
2018-09-11T04:09:53.095Z,14.93
2018-09-11T04:10:53.064Z,14.89
2018-09-11T04:11:53.067Z,14.97
2018-09-11T04:12:53.084Z,14.99
2018-09-11T04:13:53.119Z,14.97
2018-09-11T04:14:53.064Z,14.96
2018-09-11T04:15:53.100Z,14.94
2018-09-11T04:16:53.075Z,14.93
2018-09-11T04:17:53.074Z,14.82
2018-09-11T04:18:53.290Z,14.73
2018-09-11T04:19:53.122Z,14.77
2018-09-11T04:20:53.153Z,14.7
2018-09-11T04:21:53.099Z,14.77
2018-09-11T04:22:53.065Z,14.85
2018-09-11T04:23:53.148Z,14.78
2018-09-11T04:24:53.125Z,14.67
2018-09-11T04:25:53.383Z,14.81
2018-09-11T04:26:53.299Z,14.67
2018-09-11T04:27:53.293Z,14.7
2018-09-11T04:28:53.293Z,14.66
2018-09-11T04:29:53.140Z,14.68
2018-09-11T04:30:53.098Z,14.41
2018-09-11T04:31:53.127Z,14.59
2018-09-11T04:32:53.072Z,14.58
2018-09-11T04:33:53.085Z,14.59
2018-09-11T04:34:53.125Z,14.67
2018-09-11T04:35:53.180Z,14.73
2018-09-11T04:36:53.098Z,14.68
2018-09-11T04:37:53.109Z,14.58
2018-09-11T04:38:53.102Z,14.67
2018-09-11T04:39:53.079Z,14.67
2018-09-11T04:40:53.133Z,14.66
2018-09-11T04:41:53.129Z,14.61
2018-09-11T04:42:53.301Z,14.56
2018-09-11T04:43:53.108Z,14.58
2018-09-11T04:44:53.931Z,14.67
2018-09-11T04:50:10.314Z,14.52
2018-09-11T04:50:22.737Z,14.56
2018-09-11T04:51:22.682Z,14.52
2018-09-11T04:52:22.724Z,14.62
2018-09-11T04:53:22.714Z,14.58
2018-09-11T04:54:22.732Z,14.58
2018-09-11T04:55:22.773Z,14.67
2018-09-11T04:56:22.778Z,14.62
2018-09-11T04:57:22.719Z,14.63
2018-09-11T04:58:22.726Z,14.66
2018-09-11T04:59:22.770Z,14.68
2018-09-11T05:00:22.774Z,14.62
2018-09-11T05:01:22.812Z,14.74
2018-09-11T05:02:22.738Z,14.85
2018-09-11T05:03:22.693Z,14.77
2018-09-11T05:04:22.752Z,14.73
2018-09-11T05:05:22.722Z,14.62
2018-09-11T05:06:22.765Z,14.51
2018-09-11T05:07:22.793Z,14.63
2018-09-11T05:08:22.727Z,14.55
2018-09-11T05:09:22.801Z,14.55
2018-09-11T05:10:22.816Z,14.59
2018-09-11T05:11:22.712Z,14.55
2018-09-11T05:12:22.738Z,14.53
2018-09-11T05:13:22.785Z,14.68
2018-09-11T05:14:22.770Z,14.71
2018-09-11T05:15:22.760Z,14.78
2018-09-11T05:16:22.735Z,14.7
2018-09-11T05:17:22.766Z,14.77
2018-09-11T05:18:22.783Z,14.73
2018-09-11T05:19:22.897Z,14.79
2018-09-11T05:20:22.765Z,14.85
2018-09-11T05:21:22.743Z,14.77
2018-09-11T05:22:22.766Z,14.82
2018-09-11T05:23:22.752Z,14.94
2018-09-11T05:24:22.789Z,14.87
2018-09-11T05:25:22.806Z,14.81
2018-09-11T05:26:22.830Z,14.82
2018-09-11T05:27:23.136Z,14.86
2018-09-11T05:28:22.748Z,14.94
2018-09-11T05:29:22.828Z,15
2018-09-11T05:30:22.817Z,14.99
2018-09-11T05:31:22.828Z,14.96
2018-09-11T05:32:22.774Z,15.07
2018-09-11T05:33:22.775Z,15.1
2018-09-11T05:34:22.777Z,15.02
2018-09-11T05:35:23.017Z,15.1
2018-09-11T05:36:22.773Z,15.17
2018-09-11T05:37:22.838Z,15.17
2018-09-11T05:38:22.781Z,15.14
2018-09-11T05:39:22.813Z,15.22
2018-09-11T05:40:22.829Z,15.12
2018-09-11T05:41:23.036Z,15.11
2018-09-11T05:42:22.940Z,15.23
2018-09-11T05:43:22.802Z,15.22
2018-09-11T05:44:22.994Z,15.15
2018-09-11T05:45:22.800Z,15.26
2018-09-11T05:46:22.787Z,15.25
2018-09-11T05:47:22.977Z,15.25
2018-09-11T05:48:22.805Z,15.23
2018-09-11T05:49:22.810Z,15.32
2018-09-11T05:50:22.822Z,15.26
2018-09-11T05:51:22.817Z,15.36
2018-09-11T05:52:22.800Z,15.35
2018-09-11T05:53:22.809Z,15.3
2018-09-11T05:54:22.807Z,15.36
2018-09-11T05:55:22.811Z,15.41
2018-09-11T05:56:22.820Z,15.41
2018-09-11T05:57:22.838Z,15.39
2018-09-11T05:58:22.954Z,15.5
2018-09-11T05:59:22.805Z,15.48
2018-09-11T06:00:22.826Z,15.5
2018-09-11T06:01:22.805Z,15.6
2018-09-11T06:02:22.824Z,15.52
2018-09-11T06:03:22.835Z,15.63
2018-09-11T06:04:22.857Z,15.65
2018-09-11T06:05:22.849Z,15.73
2018-09-11T06:06:22.798Z,15.85
2018-09-11T06:07:22.801Z,15.8
2018-09-11T06:08:22.804Z,15.85
2018-09-11T06:09:22.905Z,15.99
2018-09-11T06:10:22.855Z,15.94
2018-09-11T06:11:22.831Z,15.88
2018-09-11T06:12:22.859Z,15.98
2018-09-11T06:14:22.836Z,16.17
2018-09-11T06:15:22.847Z,16.21
2018-09-11T06:16:23.011Z,16.16
2018-09-11T06:17:22.904Z,16.31
2018-09-11T06:18:22.900Z,16.44
2018-09-11T06:19:22.880Z,16.44
2018-09-11T06:20:22.887Z,16.47
2018-09-11T06:21:22.930Z,16.66
2018-09-11T06:22:23.069Z,16.8
2018-09-11T06:23:22.842Z,16.83
2018-09-11T06:24:22.878Z,16.91
2018-09-11T06:25:22.849Z,17.02
2018-09-11T06:26:23.057Z,17.12
2018-09-11T06:27:22.864Z,17.16
2018-09-11T06:28:22.940Z,17.24
2018-09-11T06:29:22.954Z,17.3
2018-09-11T06:30:23.107Z,17.49
2018-09-11T06:31:22.853Z,17.57
2018-09-11T06:32:22.886Z,17.52
2018-09-11T06:33:23.111Z,17.6
2018-09-11T06:34:22.873Z,17.76
2018-09-11T06:35:23.023Z,17.76
2018-09-11T06:36:22.853Z,17.78
2018-09-11T06:37:22.913Z,17.93
2018-09-11T06:38:22.905Z,17.91
2018-09-11T06:39:22.874Z,18.12
2018-09-11T06:40:24.152Z,18.08
2018-09-11T06:41:23.206Z,18.02
2018-09-11T06:42:22.922Z,18.06
2018-09-11T06:43:22.951Z,18.03
2018-09-11T06:44:22.905Z,18.28
2018-09-11T06:45:22.882Z,18.31
2018-09-11T06:46:22.874Z,18.49
2018-09-11T06:47:22.913Z,18.51
2018-09-11T06:48:22.922Z,18.6
2018-09-11T06:49:57.691Z,18.68
2018-09-11T06:50:22.948Z,18.68
2018-09-11T06:51:22.929Z,18.92
2018-09-11T06:52:22.908Z,19.08
2018-09-11T06:53:22.922Z,19.08
2018-09-11T06:54:22.933Z,19.04
2018-09-11T06:55:22.936Z,19.3
2018-09-11T06:56:22.900Z,19.53
2018-09-11T06:57:22.959Z,19.62
2018-09-11T06:58:22.938Z,19.6
2018-09-11T06:59:22.960Z,19.71
2018-09-11T07:00:22.960Z,19.93
2018-09-11T07:01:22.975Z,19.96
2018-09-11T07:02:22.958Z,20.1
2018-09-11T07:03:22.963Z,20.21
2018-09-11T07:04:22.971Z,19.94
2018-09-11T07:05:22.931Z,19.96
2018-09-11T07:06:22.934Z,20.11
2018-09-11T07:07:22.941Z,20.12
2018-09-11T07:08:22.990Z,20.24
2018-09-11T07:09:22.932Z,20.5
2018-09-11T07:10:23.090Z,20.63
2018-09-11T07:11:22.966Z,20.74
2018-09-11T07:12:22.927Z,20.77
2018-09-11T07:13:23.141Z,20.75
2018-09-11T07:14:23.150Z,21.3
2018-09-11T07:15:22.958Z,21.25
2018-09-11T07:16:23.170Z,21.56
2018-09-11T07:17:22.957Z,21.44
2018-09-11T07:18:22.955Z,21.47
2018-09-11T07:19:22.967Z,21.35
2018-09-11T07:20:23.203Z,21.62
2018-09-11T07:21:23.002Z,21.5
2018-09-11T07:22:23.037Z,21.19
2018-09-11T07:23:22.981Z,21.13
2018-09-11T07:24:22.961Z,20.98
2018-09-11T07:25:23.004Z,21.08
2018-09-11T07:26:23.087Z,21.23
2018-09-11T07:27:22.939Z,21.37
2018-09-11T07:28:22.984Z,20.95
2018-09-11T07:29:22.933Z,21.44
2018-09-11T07:30:23.095Z,21.59
2018-09-11T07:31:23.128Z,21.75
2018-09-11T07:32:23.024Z,21.75
2018-09-11T07:33:22.975Z,21.8
2018-09-11T07:34:22.961Z,22.1
2018-09-11T07:35:22.991Z,22.16
2018-09-11T07:36:23.075Z,22.14
2018-09-11T07:37:22.965Z,22.25
2018-09-11T07:38:22.986Z,22.63
2018-09-11T07:39:22.986Z,22.92
2018-09-11T07:40:22.950Z,22.83
2018-09-11T07:41:23.006Z,23.07
2018-09-11T07:42:23.006Z,23.21
2018-09-11T07:43:23.226Z,23.1
2018-09-11T07:44:23.218Z,22.76
2018-09-11T07:51:01.675Z,23.58
2018-09-11T07:52:01.660Z,23.99
2018-09-11T07:53:01.885Z,24.07
2018-09-11T07:54:01.721Z,24.25
2018-09-11T07:55:01.687Z,24.41
2018-09-11T07:56:01.727Z,23.95
2018-09-11T07:57:01.705Z,23.81
2018-09-11T07:58:01.847Z,23.81
2018-09-11T07:59:01.683Z,23.96
2018-09-11T08:00:01.706Z,23.59
2018-09-11T08:01:01.691Z,23.33
2018-09-11T08:02:01.736Z,23.71
2018-09-11T08:03:02.081Z,24.09
2018-09-11T08:04:01.687Z,23.82
2018-09-11T08:05:01.680Z,23.79
2018-09-11T08:06:01.726Z,23.96
2018-09-11T08:07:01.682Z,24.03
2018-09-11T08:08:01.688Z,24.1
2018-09-11T08:09:01.711Z,24.07
2018-09-11T08:10:01.725Z,23.95
2018-09-11T08:11:01.692Z,24.19
2018-09-11T08:12:01.827Z,24.4
2018-09-11T08:13:01.715Z,24.53
2018-09-11T08:14:01.742Z,24.82
2018-09-11T08:15:01.726Z,24.53
2018-09-11T08:16:01.721Z,24.32
2018-09-11T08:17:01.748Z,24.82
2018-09-11T08:18:01.963Z,24.92
2018-09-11T08:19:01.968Z,24.69
2018-09-11T08:20:01.903Z,24.77
2018-09-11T08:21:01.732Z,24.88
2018-09-11T08:22:01.721Z,24.94
2018-09-11T08:23:01.733Z,25.09
2018-09-11T08:24:01.742Z,25.39
2018-09-11T08:25:01.719Z,25.62
2018-09-11T08:26:01.856Z,25.67
2018-09-11T08:27:01.756Z,25.95
2018-09-11T08:28:01.743Z,26.06
2018-09-11T08:29:01.707Z,25.91
2018-09-11T08:30:01.740Z,25.99
2018-09-11T08:31:01.733Z,25.98
2018-09-11T08:32:01.771Z,25.51
2018-09-11T08:33:01.762Z,25.56
2018-09-11T08:34:01.743Z,25.73
2018-09-11T08:35:01.751Z,25.54
2018-09-11T08:36:01.733Z,25.85
2018-09-11T08:37:01.733Z,25.67
2018-09-11T08:38:01.747Z,25.85
2018-09-11T08:39:01.752Z,25.95
2018-09-11T08:40:01.739Z,26.29
2018-09-11T08:41:01.874Z,26.3
2018-09-11T08:42:01.772Z,26.37
2018-09-11T08:43:01.770Z,26.56
2018-09-11T08:44:01.775Z,26.19
2018-09-11T08:45:01.748Z,26.61
2018-09-11T08:46:01.760Z,26.48
2018-09-11T08:47:01.796Z,25.74
2018-09-11T08:48:01.796Z,26.08
2018-09-11T08:49:01.986Z,26.45
2018-09-11T08:50:01.971Z,26.33
2018-09-11T08:51:01.791Z,26.27
2018-09-11T08:52:01.870Z,26.31
2018-09-11T08:53:01.802Z,26.15
2018-09-11T08:54:01.815Z,26.74
2018-09-11T08:55:01.773Z,26.86
2018-09-11T08:56:01.817Z,26.31
2018-09-11T08:57:01.767Z,26.79
2018-09-11T08:58:01.799Z,26.59
2018-09-11T08:59:01.805Z,26.63
2018-09-11T09:00:01.786Z,27
2018-09-11T09:01:01.875Z,27.18
2018-09-11T09:02:01.799Z,27
2018-09-11T09:03:01.807Z,26.88
2018-09-11T09:04:01.861Z,27.05
2018-09-11T09:05:01.799Z,27.4
2018-09-11T09:06:01.884Z,27.29
2018-09-11T09:07:01.827Z,27.19
2018-09-11T09:08:01.852Z,27.4
2018-09-11T09:09:01.804Z,27.82
2018-09-11T09:10:01.932Z,27.33
2018-09-11T09:11:01.798Z,27.22
2018-09-11T09:12:01.812Z,27.76
2018-09-11T09:13:01.814Z,27.88
2018-09-11T09:14:01.822Z,28
2018-09-11T09:15:01.809Z,28.15
2018-09-11T09:16:02.535Z,27.75
2018-09-11T09:17:01.823Z,27.47
2018-09-11T09:18:01.858Z,27.33
2018-09-11T09:19:01.842Z,27.34
2018-09-11T09:20:01.828Z,27.57
2018-09-11T09:21:01.986Z,27.64
2018-09-11T09:22:01.809Z,28.03
2018-09-11T09:23:01.851Z,28.16
2018-09-11T09:24:01.818Z,28.08
2018-09-11T09:25:01.828Z,27.91
2018-09-11T09:26:01.846Z,27.47
2018-09-11T09:27:01.998Z,27.63
2018-09-11T09:28:01.893Z,27.58
2018-09-11T09:29:01.873Z,27.85
2018-09-11T09:30:01.871Z,28.25
2018-09-11T09:31:01.883Z,28.01
2018-09-11T09:32:02.237Z,28.15
2018-09-11T09:33:01.845Z,27.85
2018-09-11T09:34:01.851Z,28.22
2018-09-11T09:35:01.947Z,28.23
2018-09-11T09:36:01.976Z,28.23
2018-09-11T09:37:01.985Z,28.55
2018-09-11T09:38:01.879Z,28.09
2018-09-11T09:39:01.854Z,27.97
2018-09-11T09:40:01.882Z,27.93
2018-09-11T09:41:02.242Z,28.43
2018-09-11T09:42:01.868Z,28.3
2018-09-11T09:43:01.879Z,28.15
2018-09-11T09:44:01.961Z,28.28
2018-09-11T09:45:01.861Z,28.46
2018-09-11T09:46:01.904Z,28.68
2018-09-11T09:47:01.885Z,28.86
2018-09-11T09:48:01.946Z,28.77
2018-09-11T09:49:01.889Z,28.8
2018-09-11T09:50:01.874Z,28.77
2018-09-11T09:51:01.979Z,28.16
2018-09-11T09:52:01.946Z,28.53
2018-09-11T09:53:01.888Z,28.8
2018-09-11T09:54:01.929Z,28.67
2018-09-11T09:55:01.892Z,28.53
2018-09-11T09:56:01.910Z,28.64
2018-09-11T09:57:01.867Z,28.75
2018-09-11T09:58:01.921Z,28.67
2018-09-11T09:59:01.931Z,28.78
2018-09-11T10:00:01.909Z,28.34
2018-09-11T10:01:02.142Z,28.57
2018-09-11T10:02:02.164Z,28.33
2018-09-11T10:03:01.889Z,28.6
2018-09-11T10:04:02.155Z,28.53
2018-09-11T10:05:02.034Z,28.55
2018-09-11T10:06:01.957Z,28.53
2018-09-11T10:07:02.078Z,28.72
2018-09-11T10:08:01.945Z,28.62
2018-09-11T10:09:01.932Z,29.02
2018-09-11T10:10:01.918Z,28.38
2018-09-11T10:11:01.935Z,28.74
2018-09-11T10:12:01.948Z,28.93
2018-09-11T10:13:01.911Z,29.12
2018-09-11T10:14:01.926Z,29
2018-09-11T10:15:01.955Z,29.37
2018-09-11T10:16:01.959Z,29.47
2018-09-11T10:17:01.967Z,29.28
2018-09-11T10:18:01.938Z,29.28
2018-09-11T10:19:01.946Z,29.42
2018-09-11T10:20:01.915Z,29.35
2018-09-11T10:21:01.954Z,28.59
2018-09-11T10:22:01.976Z,28.57
2018-09-11T10:23:02.190Z,28.68
2018-09-11T10:24:01.956Z,28.72
2018-09-11T10:25:01.951Z,28.13
2018-09-11T10:26:01.953Z,28.38
2018-09-11T10:27:01.928Z,28.23
2018-09-11T10:28:01.979Z,28.4
2018-09-11T10:29:02.005Z,28.94
2018-09-11T10:30:02.028Z,28.83
2018-09-11T10:31:01.986Z,28.72
2018-09-11T10:32:01.997Z,28.71
2018-09-11T10:33:01.962Z,29.06
2018-09-11T10:34:02.005Z,29.25
2018-09-11T10:35:02.115Z,28.68
2018-09-11T10:36:02.347Z,28.71
2018-09-11T10:37:01.992Z,28.72
2018-09-11T10:38:01.995Z,28.75
2018-09-11T10:39:01.984Z,28.92
2018-09-11T10:40:02.253Z,28.67
2018-09-11T10:41:01.991Z,28.56
2018-09-11T10:42:02.113Z,28.45
2018-09-11T10:49:28.755Z,28.15
2018-09-11T10:49:41.060Z,27.93
2018-09-11T10:50:41.024Z,27.6
2018-09-11T10:51:41.052Z,27.45
2018-09-11T10:52:41.038Z,27.34
2018-09-11T10:53:41.046Z,27.45
2018-09-11T10:54:41.010Z,27.45
2018-09-11T10:55:41.059Z,27.48
2018-09-11T10:56:41.284Z,27.68
2018-09-11T10:57:41.262Z,27.5
2018-09-11T10:58:41.023Z,27.38
2018-09-11T10:59:41.051Z,27.63
2018-09-11T11:00:41.058Z,27.6
2018-09-11T11:01:41.079Z,27.33
2018-09-11T11:02:41.029Z,27.3
2018-09-11T11:03:41.077Z,26.78
2018-09-11T11:04:41.079Z,27.45
2018-09-11T11:05:41.089Z,27.73
2018-09-11T11:06:41.062Z,27.33
2018-09-11T11:07:41.076Z,27.66
2018-09-11T11:08:41.084Z,27.95
2018-09-11T11:09:41.055Z,27.66
2018-09-11T11:10:41.059Z,28.16
2018-09-11T11:11:41.077Z,28.41
2018-09-11T11:12:41.072Z,28.41
2018-09-11T11:13:41.069Z,28.72
2018-09-11T11:14:41.082Z,28.74
2018-09-11T11:15:41.054Z,28.45
2018-09-11T11:16:41.076Z,28.28
2018-09-11T11:17:41.071Z,28.38
2018-09-11T11:18:41.069Z,28.82
2018-09-11T11:19:41.083Z,28.9
2018-09-11T11:20:41.126Z,28.55
2018-09-11T11:21:41.100Z,28.4
2018-09-11T11:22:41.069Z,28.4
2018-09-11T11:23:41.085Z,28.72
2018-09-11T11:24:41.080Z,28.68
2018-09-11T11:25:41.112Z,28.8
2018-09-11T11:26:41.103Z,29.07
2018-09-11T11:27:41.094Z,29.32
2018-09-11T11:28:41.145Z,29.31
2018-09-11T11:29:41.116Z,29.31
2018-09-11T11:30:41.720Z,29.35
2018-09-11T11:31:41.115Z,29.4
2018-09-11T11:32:41.109Z,29.31
2018-09-11T11:33:41.071Z,29.21
2018-09-11T11:34:41.131Z,29.3
2018-09-11T11:35:41.097Z,29.16
2018-09-11T11:36:41.285Z,29.37
2018-09-11T11:37:41.108Z,29.32
2018-09-11T11:38:41.095Z,29.32
2018-09-11T11:39:41.157Z,29.39
2018-09-11T11:40:41.114Z,29.28
2018-09-11T11:41:41.217Z,29.1
2018-09-11T11:48:20.940Z,29.73
2018-09-11T11:49:20.724Z,29.94
2018-09-11T11:50:20.693Z,29.79
2018-09-11T11:51:20.707Z,29.59
2018-09-11T11:52:20.696Z,29.94
2018-09-11T11:53:20.684Z,30.05
2018-09-11T11:54:20.695Z,29.98
2018-09-11T11:55:20.839Z,29.87
2018-09-11T11:56:20.741Z,29.77
2018-09-11T11:57:20.717Z,29.84
2018-09-11T11:58:20.723Z,29.68
2018-09-11T11:59:20.720Z,29.57
2018-09-11T12:01:40.863Z,29.89
2018-09-11T12:02:40.616Z,30.17
2018-09-11T12:03:40.596Z,30.16
2018-09-11T12:04:40.628Z,30.02
2018-09-11T12:05:40.635Z,29.84
2018-09-11T12:06:40.629Z,29.61
2018-09-11T12:07:40.736Z,30.03
2018-09-11T12:08:40.647Z,30.14
2018-09-11T12:09:40.825Z,29.96
2018-09-11T12:10:40.657Z,29.8
2018-09-11T12:11:40.797Z,29.96
2018-09-11T12:12:40.635Z,30.24
2018-09-11T12:13:40.637Z,30.31
2018-09-11T12:14:40.637Z,30.44
2018-09-11T12:15:40.633Z,29.76
2018-09-11T12:16:40.640Z,30.13
2018-09-11T12:17:40.639Z,30.1
2018-09-11T12:18:40.684Z,30.1
2018-09-11T12:19:40.685Z,30.33
2018-09-11T12:20:40.625Z,29.65
2018-09-11T12:21:40.934Z,30.23
2018-09-11T12:22:40.665Z,30.38
2018-09-11T12:23:40.691Z,30.27
2018-09-11T12:24:40.681Z,30.11
2018-09-11T12:25:40.755Z,30.49
2018-09-11T12:26:40.734Z,30.73
2018-09-11T12:27:40.652Z,30.7
2018-09-11T12:28:40.760Z,30.69
2018-09-11T12:29:40.652Z,30.56
2018-09-11T12:30:40.672Z,30.61
2018-09-11T12:31:40.675Z,30.26
2018-09-11T12:32:40.709Z,30.54
2018-09-11T12:33:40.720Z,30.56
2018-09-11T12:34:40.676Z,30.74
2018-09-11T12:35:40.684Z,30.69
2018-09-11T12:36:40.706Z,30.81
2018-09-11T12:37:40.970Z,30.8
2018-09-11T12:38:41.274Z,30.58
2018-09-11T12:39:40.728Z,30.51
2018-09-11T12:40:40.696Z,30.62
2018-09-11T12:41:40.663Z,30.32
2018-09-11T12:42:40.706Z,30.21
2018-09-11T12:43:40.702Z,30.69
2018-09-11T12:51:09.144Z,30.83
2018-09-11T12:52:26.092Z,30.59
2018-09-11T12:52:38.726Z,30.65
2018-09-11T12:53:38.383Z,30.88
2018-09-11T12:54:38.523Z,30.81
2018-09-11T12:55:38.444Z,30.74
2018-09-11T12:56:38.398Z,30.89
2018-09-11T12:57:38.423Z,30.65
2018-09-11T12:58:38.637Z,30.88
2018-09-11T12:59:38.396Z,30.88
2018-09-11T13:00:38.408Z,30.2
2018-09-11T13:01:38.411Z,30.39
2018-09-11T13:02:38.768Z,30.23
2018-09-11T13:03:38.462Z,30.36
2018-09-11T13:04:38.452Z,30.51
2018-09-11T13:05:38.441Z,30.73
2018-09-11T13:12:18.116Z,30.71
2018-09-11T13:13:17.910Z,30.71
2018-09-11T13:14:17.882Z,30.39
2018-09-11T13:15:17.979Z,30.27
2018-09-11T13:16:17.955Z,30.49
2018-09-11T13:17:17.934Z,30.71
2018-09-11T13:18:17.905Z,30.58
2018-09-11T13:19:17.907Z,30.74
2018-09-11T13:20:17.880Z,30.49
2018-09-11T13:21:17.894Z,30.76
2018-09-11T13:22:17.927Z,30.93
2018-09-11T13:23:17.891Z,30.52
2018-09-11T13:24:17.877Z,30.8
2018-09-11T13:25:18.033Z,31.11
2018-09-11T13:26:17.920Z,30.69
2018-09-11T13:27:17.919Z,30.54
2018-09-11T13:28:17.888Z,30.73
2018-09-11T13:29:17.918Z,30.96
2018-09-11T13:30:17.900Z,31
2018-09-11T13:31:17.961Z,30.76
2018-09-11T13:32:17.910Z,30.83
2018-09-11T13:33:17.927Z,30.96
2018-09-11T13:34:18.159Z,30.98
2018-09-11T13:35:17.931Z,30.85
2018-09-11T13:36:17.979Z,31.02
2018-09-11T13:37:17.944Z,30.99
2018-09-11T13:38:17.921Z,31.08
2018-09-11T13:39:17.923Z,30.85
2018-09-11T13:40:17.973Z,30.95
2018-09-11T13:41:17.936Z,31.15
2018-09-11T13:42:18.148Z,30.83
2018-09-11T13:54:04.582Z,31.22
2018-09-11T13:54:16.867Z,31.26
2018-09-11T13:55:16.879Z,30.85